Terminal Aerodrome Forecast
Issued by NWS

Home | Current Version | Previous Version | Text Only | Print | Product List | Glossary On
Versions: 1 2 3 4 5 6 7 8 9 10 11 12 13 14
000
FTUS46 KMTR 011100
TAFSNS
TAF
KSNS 011139Z 0112/0212 11006KT P6SM SCT050
     FM012100 28008KT P6SM BKN035
     FM020300 29004KT P6SM FEW015
     FM020500 00000KT 6SM BR FEW007=

USA.gov is the U.S. government's official web portal to all federal, state and local government web resources and services.